sensor_id;sensor_type;location;lat;lon;timestamp;pressure;altitude;pressure_sealevel;temperature;humidity
47753;BME280;2038;51.728;6.674;2023-12-07T00:01:10;78343.66;;;-141.64;96.43
47753;BME280;2038;51.728;6.674;2023-12-07T00:03:36;78333.88;;;-141.64;96.69
47753;BME280;2038;51.728;6.674;2023-12-07T00:06:02;78337.78;;;-141.64;96.30
47753;BME280;2038;51.728;6.674;2023-12-07T00:08:29;78341.69;;;-141.64;96.44
47753;BME280;2038;51.728;6.674;2023-12-07T00:10:55;78326.06;;;-141.64;96.17
47753;BME280;2038;51.728;6.674;2023-12-07T00:13:20;78320.22;;;-141.64;95.78
47753;BME280;2038;51.728;6.674;2023-12-07T00:15:47;78322.16;;;-141.64;95.92
47753;BME280;2038;51.728;6.674;2023-12-07T00:18:13;78316.31;;;-141.64;95.70
47753;BME280;2038;51.728;6.674;2023-12-07T00:20:39;78318.25;;;-141.64;95.52
47753;BME280;2038;51.728;6.674;2023-12-07T00:23:05;78320.22;;;-141.64;95.75
47753;BME280;2038;51.728;6.674;2023-12-07T00:25:31;78320.22;;;-141.64;96.00
47753;BME280;2038;51.728;6.674;2023-12-07T00:27:57;78312.41;;;-141.64;95.75
47753;BME280;2038;51.728;6.674;2023-12-07T00:30:23;78310.44;;;-141.64;95.90
47753;BME280;2038;51.728;6.674;2023-12-07T00:32:48;78310.44;;;-141.64;95.27
47753;BME280;2038;51.728;6.674;2023-12-07T00:35:15;78318.25;;;-141.64;95.62
47753;BME280;2038;51.728;6.674;2023-12-07T00:37:41;78322.16;;;-141.64;95.15
47753;BME280;2038;51.728;6.674;2023-12-07T00:40:08;78322.16;;;-141.64;94.94
47753;BME280;2038;51.728;6.674;2023-12-07T00:42:34;78328.03;;;-141.64;94.83
47753;BME280;2038;51.728;6.674;2023-12-07T00:45:00;78326.06;;;-141.64;95.01
47753;BME280;2038;51.728;6.674;2023-12-07T00:47:26;78324.13;;;-141.64;95.10
47753;BME280;2038;51.728;6.674;2023-12-07T00:49:52;78335.84;;;-141.64;95.00
47753;BME280;2038;51.728;6.674;2023-12-07T00:52:18;78339.75;;;-141.64;94.71
47753;BME280;2038;51.728;6.674;2023-12-07T00:54:44;78349.53;;;-141.64;94.60
47753;BME280;2038;51.728;6.674;2023-12-07T00:57:10;78351.47;;;-141.64;94.53
47753;BME280;2038;51.728;6.674;2023-12-07T00:59:36;78353.44;;;-141.64;94.25
47753;BME280;2038;51.728;6.674;2023-12-07T01:02:06;78374.91;;;-141.64;94.28
47753;BME280;2038;51.728;6.674;2023-12-07T01:04:33;78371.00;;;-141.64;94.34
47753;BME280;2038;51.728;6.674;2023-12-07T01:06:59;78376.88;;;-141.64;94.51
47753;BME280;2038;51.728;6.674;2023-12-07T01:09:26;78380.78;;;-141.64;94.51
47753;BME280;2038;51.728;6.674;2023-12-07T01:11:52;78380.78;;;-141.64;94.66
47753;BME280;2038;51.728;6.674;2023-12-07T01:14:18;78390.53;;;-141.64;94.65
47753;BME280;2038;51.728;6.674;2023-12-07T01:16:45;78396.41;;;-141.64;95.02
47753;BME280;2038;51.728;6.674;2023-12-07T01:19:11;78390.53;;;-141.64;94.89
47753;BME280;2038;51.728;6.674;2023-12-07T01:21:41;78392.50;;;-141.64;94.57
47753;BME280;2038;51.728;6.674;2023-12-07T01:24:08;78404.22;;;-141.64;94.21
47753;BME280;2038;51.728;6.674;2023-12-07T01:26:34;78406.16;;;-141.64;94.38
47753;BME280;2038;51.728;6.674;2023-12-07T01:29:00;78406.16;;;-141.64;94.70
47753;BME280;2038;51.728;6.674;2023-12-07T01:31:26;78410.06;;;-141.64;94.40
47753;BME280;2038;51.728;6.674;2023-12-07T01:33:52;78415.94;;;-141.64;94.25
47753;BME280;2038;51.728;6.674;2023-12-07T01:36:18;78408.13;;;-141.64;94.26
47753;BME280;2038;51.728;6.674;2023-12-07T01:38:44;78406.16;;;-141.64;93.72
47753;BME280;2038;51.728;6.674;2023-12-07T01:41:10;78413.97;;;-141.64;94.23
47753;BME280;2038;51.728;6.674;2023-12-07T01:43:36;78412.03;;;-141.64;93.82
47753;BME280;2038;51.728;6.674;2023-12-07T01:46:02;78427.66;;;-141.64;93.74
47753;BME280;2038;51.728;6.674;2023-12-07T01:48:30;78431.56;;;-141.64;93.93
47753;BME280;2038;51.728;6.674;2023-12-07T01:50:57;78437.44;;;-141.64;93.54
47753;BME280;2038;51.728;6.674;2023-12-07T01:53:26;78433.53;;;-141.64;93.87
47753;BME280;2038;51.728;6.674;2023-12-07T01:55:53;78429.63;;;-141.64;93.94
47753;BME280;2038;51.728;6.674;2023-12-07T01:58:20;78425.69;;;-141.64;93.88
47753;BME280;2038;51.728;6.674;2023-12-07T02:00:48;78431.56;;;-141.64;94.05
47753;BME280;2038;51.728;6.674;2023-12-07T02:03:16;78439.38;;;-141.64;93.45
47753;BME280;2038;51.728;6.674;2023-12-07T02:05:47;78449.16;;;-141.64;93.68
47753;BME280;2038;51.728;6.674;2023-12-07T02:08:14;78447.19;;;-141.64;93.94
47753;BME280;2038;51.728;6.674;2023-12-07T02:10:41;78447.19;;;-141.64;94.03
47753;BME280;2038;51.728;6.674;2023-12-07T02:13:07;78441.34;;;-141.64;93.51
47753;BME280;2038;51.728;6.674;2023-12-07T02:15:34;78456.97;;;-141.64;93.94
47753;BME280;2038;51.728;6.674;2023-12-07T02:21:25;78460.88;;;-141.64;93.46
47753;BME280;2038;51.728;6.674;2023-12-07T02:23:58;78460.88;;;-141.64;93.16
47753;BME280;2038;51.728;6.674;2023-12-07T02:26:52;78464.78;;;-141.64;93.16
47753;BME280;2038;51.728;6.674;2023-12-07T02:29:18;78468.69;;;-141.64;93.47
47753;BME280;2038;51.728;6.674;2023-12-07T02:31:44;78466.72;;;-141.64;93.68
47753;BME280;2038;51.728;6.674;2023-12-07T02:34:10;78478.44;;;-141.64;93.02
47753;BME280;2038;51.728;6.674;2023-12-07T02:36:39;78476.50;;;-141.64;93.37
47753;BME280;2038;51.728;6.674;2023-12-07T02:39:09;78490.16;;;-141.64;93.09
47753;BME280;2038;51.728;6.674;2023-12-07T02:41:39;78486.25;;;-141.64;93.54
47753;BME280;2038;51.728;6.674;2023-12-07T02:44:07;78480.41;;;-141.64;93.13
47753;BME280;2038;51.728;6.674;2023-12-07T02:46:33;78474.53;;;-141.64;93.41
47753;BME280;2038;51.728;6.674;2023-12-07T02:48:59;78468.69;;;-141.64;93.12
47753;BME280;2038;51.728;6.674;2023-12-07T02:51:26;78468.69;;;-141.64;93.09
47753;BME280;2038;51.728;6.674;2023-12-07T02:53:54;78474.53;;;-141.64;93.34
47753;BME280;2038;51.728;6.674;2023-12-07T02:56:20;78472.59;;;-141.64;93.18
47753;BME280;2038;51.728;6.674;2023-12-07T02:58:46;78478.44;;;-141.64;93.64
47753;BME280;2038;51.728;6.674;2023-12-07T03:01:11;78478.44;;;-141.64;93.58
47753;BME280;2038;51.728;6.674;2023-12-07T03:03:39;78476.50;;;-141.64;93.55
47753;BME280;2038;51.728;6.674;2023-12-07T03:06:06;78478.44;;;-141.64;93.52
47753;BME280;2038;51.728;6.674;2023-12-07T03:08:32;78484.31;;;-141.64;93.35
47753;BME280;2038;51.728;6.674;2023-12-07T03:10:59;78486.25;;;-141.64;93.65
47753;BME280;2038;51.728;6.674;2023-12-07T03:13:26;78486.25;;;-141.64;93.13
47753;BME280;2038;51.728;6.674;2023-12-07T03:15:51;78498.00;;;-141.64;93.09
47753;BME280;2038;51.728;6.674;2023-12-07T03:18:17;78496.03;;;-141.64;93.44
47753;BME280;2038;51.728;6.674;2023-12-07T03:20:43;78492.13;;;-141.64;93.14
47753;BME280;2038;51.728;6.674;2023-12-07T03:23:09;78494.06;;;-141.64;93.27
47753;BME280;2038;51.728;6.674;2023-12-07T03:25:35;78499.94;;;-141.64;93.19
47753;BME280;2038;51.728;6.674;2023-12-07T03:28:01;78488.22;;;-141.64;93.56
47753;BME280;2038;51.728;6.674;2023-12-07T03:30:27;78482.34;;;-141.64;94.08
47753;BME280;2038;51.728;6.674;2023-12-07T03:32:53;78486.25;;;-141.64;93.66
47753;BME280;2038;51.728;6.674;2023-12-07T03:35:18;78484.31;;;-141.64;93.88
47753;BME280;2038;51.728;6.674;2023-12-07T03:37:44;78472.59;;;-141.64;94.51
47753;BME280;2038;51.728;6.674;2023-12-07T03:40:10;78464.78;;;-141.64;94.46
47753;BME280;2038;51.728;6.674;2023-12-07T03:42:36;78466.72;;;-141.64;93.94
47753;BME280;2038;51.728;6.674;2023-12-07T03:45:03;78458.91;;;-141.64;93.94
47753;BME280;2038;51.728;6.674;2023-12-07T03:47:29;78458.91;;;-141.64;93.93
47753;BME280;2038;51.728;6.674;2023-12-07T03:49:56;78456.97;;;-141.64;93.84
47753;BME280;2038;51.728;6.674;2023-12-07T03:52:21;78456.97;;;-141.64;94.25
47753;BME280;2038;51.728;6.674;2023-12-07T03:54:47;78456.97;;;-141.64;94.63
47753;BME280;2038;51.728;6.674;2023-12-07T03:57:13;78445.25;;;-141.64;94.44
47753;BME280;2038;51.728;6.674;2023-12-07T03:59:41;78441.34;;;-141.64;94.80
47753;BME280;2038;51.728;6.674;2023-12-07T04:02:07;78439.38;;;-141.64;94.63
47753;BME280;2038;51.728;6.674;2023-12-07T04:04:37;78429.63;;;-141.64;94.54
47753;BME280;2038;51.728;6.674;2023-12-07T04:07:04;78427.66;;;-141.64;95.18
47753;BME280;2038;51.728;6.674;2023-12-07T04:09:30;78419.84;;;-141.64;94.68
47753;BME280;2038;51.728;6.674;2023-12-07T04:11:58;78429.63;;;-141.64;94.77
47753;BME280;2038;51.728;6.674;2023-12-07T04:14:24;78412.03;;;-141.64;95.12
47753;BME280;2038;51.728;6.674;2023-12-07T04:16:50;78404.22;;;-141.64;94.99
47753;BME280;2038;51.728;6.674;2023-12-07T04:19:15;78400.31;;;-141.64;94.78
47753;BME280;2038;51.728;6.674;2023-12-07T04:21:41;78400.31;;;-141.64;94.73
47753;BME280;2038;51.728;6.674;2023-12-07T04:24:07;78392.50;;;-141.64;95.29
47753;BME280;2038;51.728;6.674;2023-12-07T04:26:34;78386.63;;;-141.64;94.90
47753;BME280;2038;51.728;6.674;2023-12-07T04:29:00;78386.63;;;-141.64;95.06
47753;BME280;2038;51.728;6.674;2023-12-07T04:31:26;78386.63;;;-141.64;95.27
47753;BME280;2038;51.728;6.674;2023-12-07T04:33:52;78380.78;;;-141.64;95.20
47753;BME280;2038;51.728;6.674;2023-12-07T04:36:17;78378.81;;;-141.64;95.22
47753;BME280;2038;51.728;6.674;2023-12-07T04:38:43;78380.78;;;-141.64;94.91
47753;BME280;2038;51.728;6.674;2023-12-07T04:41:09;78384.69;;;-141.64;95.43
47753;BME280;2038;51.728;6.674;2023-12-07T04:43:35;78378.81;;;-141.64;95.49
47753;BME280;2038;51.728;6.674;2023-12-07T04:46:00;78374.91;;;-141.64;95.29
47753;BME280;2038;51.728;6.674;2023-12-07T04:48:26;78367.09;;;-141.64;95.15
47753;BME280;2038;51.728;6.674;2023-12-07T04:50:52;78365.16;;;-141.64;95.69
47753;BME280;2038;51.728;6.674;2023-12-07T04:53:18;78361.25;;;-141.64;95.19
47753;BME280;2038;51.728;6.674;2023-12-07T04:55:44;78353.44;;;-141.64;95.76
47753;BME280;2038;51.728;6.674;2023-12-07T04:58:14;78355.38;;;-141.64;95.28
47753;BME280;2038;51.728;6.674;2023-12-07T05:00:41;78351.47;;;-141.64;95.72
47753;BME280;2038;51.728;6.674;2023-12-07T05:03:07;78335.84;;;-141.64;95.36
47753;BME280;2038;51.728;6.674;2023-12-07T05:05:32;78333.88;;;-141.64;95.31
47753;BME280;2038;51.728;6.674;2023-12-07T05:07:58;78329.97;;;-141.64;95.30
47753;BME280;2038;51.728;6.674;2023-12-07T05:10:24;78326.06;;;-141.64;95.20
47753;BME280;2038;51.728;6.674;2023-12-07T05:12:50;78337.78;;;-141.64;95.13
47753;BME280;2038;51.728;6.674;2023-12-07T05:15:16;78339.75;;;-141.64;95.62
47753;BME280;2038;51.728;6.674;2023-12-07T05:17:42;78329.97;;;-141.64;95.32
47753;BME280;2038;51.728;6.674;2023-12-07T05:20:09;78333.88;;;-141.64;95.17
47753;BME280;2038;51.728;6.674;2023-12-07T05:22:35;78324.13;;;-141.64;95.66
47753;BME280;2038;51.728;6.674;2023-12-07T05:25:00;78328.03;;;-141.64;95.21
47753;BME280;2038;51.728;6.674;2023-12-07T05:27:26;78331.94;;;-141.64;95.26
47753;BME280;2038;51.728;6.674;2023-12-07T05:29:53;78326.06;;;-141.64;95.55
47753;BME280;2038;51.728;6.674;2023-12-07T05:32:19;78331.94;;;-141.64;96.24
47753;BME280;2038;51.728;6.674;2023-12-07T05:34:45;78324.13;;;-141.64;95.84
47753;BME280;2038;51.728;6.674;2023-12-07T05:37:11;78312.41;;;-141.64;95.89
47753;BME280;2038;51.728;6.674;2023-12-07T05:39:37;78306.53;;;-141.64;95.63
47753;BME280;2038;51.728;6.674;2023-12-07T05:42:03;78308.50;;;-141.64;95.87
47753;BME280;2038;51.728;6.674;2023-12-07T05:44:30;78312.41;;;-141.64;96.09
47753;BME280;2038;51.728;6.674;2023-12-07T05:46:56;78304.59;;;-141.64;95.82
47753;BME280;2038;51.728;6.674;2023-12-07T05:49:23;78308.50;;;-141.64;95.96
47753;BME280;2038;51.728;6.674;2023-12-07T05:51:49;78298.72;;;-141.64;96.20
47753;BME280;2038;51.728;6.674;2023-12-07T05:54:15;78296.78;;;-141.64;96.17
47753;BME280;2038;51.728;6.674;2023-12-07T05:56:41;78292.88;;;-141.64;95.89
47753;BME280;2038;51.728;6.674;2023-12-07T05:59:08;78287.00;;;-141.64;96.00
47753;BME280;2038;51.728;6.674;2023-12-07T06:01:34;78290.91;;;-141.64;96.22
47753;BME280;2038;51.728;6.674;2023-12-07T06:04:00;78288.97;;;-141.64;96.64
47753;BME280;2038;51.728;6.674;2023-12-07T06:06:25;78287.00;;;-141.64;96.43
47753;BME280;2038;51.728;6.674;2023-12-07T06:08:51;78285.06;;;-141.64;96.68
47753;BME280;2038;51.728;6.674;2023-12-07T06:11:17;78283.09;;;-141.64;96.52
47753;BME280;2038;51.728;6.674;2023-12-07T06:13:43;78283.09;;;-141.64;96.73
47753;BME280;2038;51.728;6.674;2023-12-07T06:16:12;78281.16;;;-141.64;96.75
47753;BME280;2038;51.728;6.674;2023-12-07T06:18:39;78273.34;;;-141.64;96.31
47753;BME280;2038;51.728;6.674;2023-12-07T06:21:05;78265.53;;;-141.64;96.38
47753;BME280;2038;51.728;6.674;2023-12-07T06:23:31;78275.28;;;-141.64;96.29
47753;BME280;2038;51.728;6.674;2023-12-07T06:25:57;78275.28;;;-141.64;96.57
47753;BME280;2038;51.728;6.674;2023-12-07T06:28:23;78269.44;;;-141.64;96.66
47753;BME280;2038;51.728;6.674;2023-12-07T06:30:49;78265.53;;;-141.64;96.69
47753;BME280;2038;51.728;6.674;2023-12-07T06:33:16;78269.44;;;-141.64;96.50
47753;BME280;2038;51.728;6.674;2023-12-07T06:35:42;78261.59;;;-141.64;96.71
47753;BME280;2038;51.728;6.674;2023-12-07T06:38:08;78261.59;;;-141.64;96.90
47753;BME280;2038;51.728;6.674;2023-12-07T06:40:34;78255.75;;;-141.64;96.61
47753;BME280;2038;51.728;6.674;2023-12-07T06:42:59;78255.75;;;-141.64;96.46
47753;BME280;2038;51.728;6.674;2023-12-07T06:45:25;78255.75;;;-141.64;96.55
47753;BME280;2038;51.728;6.674;2023-12-07T06:47:51;78253.78;;;-141.64;96.40
47753;BME280;2038;51.728;6.674;2023-12-07T06:50:17;78244.03;;;-141.64;96.08
47753;BME280;2038;51.728;6.674;2023-12-07T06:52:43;78247.94;;;-141.64;96.23
47753;BME280;2038;51.728;6.674;2023-12-07T06:55:10;78249.88;;;-141.64;96.45
47753;BME280;2038;51.728;6.674;2023-12-07T06:57:36;78247.94;;;-141.64;96.32
47753;BME280;2038;51.728;6.674;2023-12-07T07:00:03;78251.84;;;-141.64;96.15
47753;BME280;2038;51.728;6.674;2023-12-07T07:02:31;78249.88;;;-141.64;96.56
47753;BME280;2038;51.728;6.674;2023-12-07T07:04:57;78242.06;;;-141.64;96.61
47753;BME280;2038;51.728;6.674;2023-12-07T07:07:23;78244.03;;;-141.64;96.19
47753;BME280;2038;51.728;6.674;2023-12-07T07:09:49;78240.13;;;-141.64;96.35
47753;BME280;2038;51.728;6.674;2023-12-07T07:12:15;78244.03;;;-141.64;96.21
47753;BME280;2038;51.728;6.674;2023-12-07T07:14:42;78247.94;;;-141.64;96.65
47753;BME280;2038;51.728;6.674;2023-12-07T07:17:08;78238.16;;;-141.64;96.47
47753;BME280;2038;51.728;6.674;2023-12-07T07:19:34;78236.22;;;-141.64;96.60
47753;BME280;2038;51.728;6.674;2023-12-07T07:21:59;78234.25;;;-141.64;96.47
47753;BME280;2038;51.728;6.674;2023-12-07T07:24:25;78232.31;;;-141.64;96.53
47753;BME280;2038;51.728;6.674;2023-12-07T07:26:51;78234.25;;;-141.64;96.73
47753;BME280;2038;51.728;6.674;2023-12-07T07:29:17;78224.50;;;-141.64;96.49
47753;BME280;2038;51.728;6.674;2023-12-07T07:31:43;78228.41;;;-141.64;96.53
47753;BME280;2038;51.728;6.674;2023-12-07T07:34:09;78222.53;;;-141.64;96.59
47753;BME280;2038;51.728;6.674;2023-12-07T07:36:34;78228.41;;;-141.64;96.72
47753;BME280;2038;51.728;6.674;2023-12-07T07:39:00;78232.31;;;-141.64;97.12
47753;BME280;2038;51.728;6.674;2023-12-07T07:41:26;78224.50;;;-141.64;96.95
47753;BME280;2038;51.728;6.674;2023-12-07T07:43:52;78236.22;;;-141.64;96.99
47753;BME280;2038;51.728;6.674;2023-12-07T07:46:18;78228.41;;;-141.64;97.56
47753;BME280;2038;51.728;6.674;2023-12-07T07:48:44;78228.41;;;-141.64;97.04
47753;BME280;2038;51.728;6.674;2023-12-07T07:51:09;78220.59;;;-141.64;97.26
47753;BME280;2038;51.728;6.674;2023-12-07T07:53:35;78210.81;;;-141.64;96.64
47753;BME280;2038;51.728;6.674;2023-12-07T07:56:01;78222.53;;;-141.64;96.93
47753;BME280;2038;51.728;6.674;2023-12-07T07:58:29;78244.03;;;-141.64;97.39
47753;BME280;2038;51.728;6.674;2023-12-07T08:00:55;78232.31;;;-141.64;97.69
47753;BME280;2038;51.728;6.674;2023-12-07T08:03:21;78242.06;;;-141.64;97.10
47753;BME280;2038;51.728;6.674;2023-12-07T08:05:48;78228.41;;;-141.64;97.77
47753;BME280;2038;51.728;6.674;2023-12-07T08:08:13;78244.03;;;-141.64;97.76
47753;BME280;2038;51.728;6.674;2023-12-07T08:10:39;78240.13;;;-141.64;98.21
47753;BME280;2038;51.728;6.674;2023-12-07T08:13:05;78240.13;;;-141.64;97.94
47753;BME280;2038;51.728;6.674;2023-12-07T08:15:33;78234.25;;;-141.64;97.79
47753;BME280;2038;51.728;6.674;2023-12-07T08:18:00;78242.06;;;-141.64;97.67
47753;BME280;2038;51.728;6.674;2023-12-07T08:20:26;78251.84;;;-141.64;97.79
47753;BME280;2038;51.728;6.674;2023-12-07T08:22:52;78251.84;;;-141.64;97.53
47753;BME280;2038;51.728;6.674;2023-12-07T08:25:18;78244.03;;;-141.64;97.47
47753;BME280;2038;51.728;6.674;2023-12-07T08:27:44;78242.06;;;-141.64;97.76
47753;BME280;2038;51.728;6.674;2023-12-07T08:30:12;78247.94;;;-141.64;97.50
47753;BME280;2038;51.728;6.674;2023-12-07T08:32:39;78257.69;;;-141.64;97.58
47753;BME280;2038;51.728;6.674;2023-12-07T08:35:06;78253.78;;;-141.64;97.39
47753;BME280;2038;51.728;6.674;2023-12-07T08:37:32;78244.03;;;-141.64;97.28
47753;BME280;2038;51.728;6.674;2023-12-07T08:39:59;78247.94;;;-141.64;97.47
47753;BME280;2038;51.728;6.674;2023-12-07T08:42:24;78251.84;;;-141.64;97.53
47753;BME280;2038;51.728;6.674;2023-12-07T08:44:52;78245.97;;;-141.64;97.23
47753;BME280;2038;51.728;6.674;2023-12-07T08:47:19;78244.03;;;-141.64;97.45
47753;BME280;2038;51.728;6.674;2023-12-07T08:49:45;78247.94;;;-141.64;97.40
47753;BME280;2038;51.728;6.674;2023-12-07T08:52:11;78242.06;;;-141.64;97.30
47753;BME280;2038;51.728;6.674;2023-12-07T08:54:36;78242.06;;;-141.64;97.04
47753;BME280;2038;51.728;6.674;2023-12-07T08:57:02;78234.25;;;-141.64;97.52
47753;BME280;2038;51.728;6.674;2023-12-07T08:59:29;78228.41;;;-141.64;97.52
47753;BME280;2038;51.728;6.674;2023-12-07T09:01:56;78224.50;;;-141.64;97.17
47753;BME280;2038;51.728;6.674;2023-12-07T09:04:21;78230.34;;;-141.64;97.57
47753;BME280;2038;51.728;6.674;2023-12-07T09:06:47;78226.44;;;-141.64;97.45
47753;BME280;2038;51.728;6.674;2023-12-07T09:09:13;78222.53;;;-141.64;97.93
47753;BME280;2038;51.728;6.674;2023-12-07T09:11:39;78220.59;;;-141.64;97.77
47753;BME280;2038;51.728;6.674;2023-12-07T09:14:05;78222.53;;;-141.64;97.84
47753;BME280;2038;51.728;6.674;2023-12-07T09:16:31;78224.50;;;-141.64;97.76
47753;BME280;2038;51.728;6.674;2023-12-07T09:18:56;78216.69;;;-141.64;98.16
47753;BME280;2038;51.728;6.674;2023-12-07T09:21:22;78214.72;;;-141.64;97.87
47753;BME280;2038;51.728;6.674;2023-12-07T09:23:48;78208.88;;;-141.64;98.03
47753;BME280;2038;51.728;6.674;2023-12-07T09:26:14;78214.72;;;-141.64;98.30
47753;BME280;2038;51.728;6.674;2023-12-07T09:28:40;78216.69;;;-141.64;98.14
47753;BME280;2038;51.728;6.674;2023-12-07T09:31:06;78204.97;;;-141.64;98.29
47753;BME280;2038;51.728;6.674;2023-12-07T09:33:32;78208.88;;;-141.64;98.43
47753;BME280;2038;51.728;6.674;2023-12-07T09:35:58;78208.88;;;-141.64;97.96
47753;BME280;2038;51.728;6.674;2023-12-07T09:38:24;78199.09;;;-141.64;98.15
47753;BME280;2038;51.728;6.674;2023-12-07T09:40:55;78191.28;;;-141.64;98.38
47753;BME280;2038;51.728;6.674;2023-12-07T09:43:21;78189.34;;;-141.64;98.29
47753;BME280;2038;51.728;6.674;2023-12-07T09:45:48;78181.53;;;-141.64;98.16
47753;BME280;2038;51.728;6.674;2023-12-07T09:48:17;78181.53;;;-141.64;98.54
47753;BME280;2038;51.728;6.674;2023-12-07T09:50:44;78175.66;;;-141.64;98.71
47753;BME280;2038;51.728;6.674;2023-12-07T09:53:10;78165.91;;;-141.64;98.74
47753;BME280;2038;51.728;6.674;2023-12-07T09:55:36;78163.94;;;-141.64;99.22
47753;BME280;2038;51.728;6.674;2023-12-07T09:58:07;78140.50;;;-141.64;99.35
47753;BME280;2038;51.728;6.674;2023-12-07T10:00:32;78142.44;;;-141.64;99.10
47753;BME280;2038;51.728;6.674;2023-12-07T10:02:59;78124.88;;;-141.64;99.38
47753;BME280;2038;51.728;6.674;2023-12-07T10:05:25;78115.09;;;-141.64;98.91
47753;BME280;2038;51.728;6.674;2023-12-07T10:07:51;78111.19;;;-141.64;98.91
47753;BME280;2038;51.728;6.674;2023-12-07T10:10:20;78103.38;;;-141.64;98.95
47753;BME280;2038;51.728;6.674;2023-12-07T10:12:58;78091.66;;;-141.64;98.85
47753;BME280;2038;51.728;6.674;2023-12-07T10:15:27;78087.75;;;-141.64;98.71
47753;BME280;2038;51.728;6.674;2023-12-07T10:17:56;78087.75;;;-141.64;99.12
47753;BME280;2038;51.728;6.674;2023-12-07T10:20:28;78068.22;;;-141.64;98.94
47753;BME280;2038;51.728;6.674;2023-12-07T10:23:15;78056.50;;;-141.64;98.53
47753;BME280;2038;51.728;6.674;2023-12-07T10:25:43;78058.47;;;-141.64;98.56
47753;BME280;2038;51.728;6.674;2023-12-07T10:28:10;78054.56;;;-141.64;98.09
47753;BME280;2038;51.728;6.674;2023-12-07T10:30:39;78038.94;;;-141.64;98.09
47753;BME280;2038;51.728;6.674;2023-12-07T10:33:07;78033.06;;;-141.64;97.98
47753;BME280;2038;51.728;6.674;2023-12-07T10:35:41;78011.56;;;-141.64;97.91
47753;BME280;2038;51.728;6.674;2023-12-07T10:38:09;78009.63;;;-141.64;97.80
47753;BME280;2038;51.728;6.674;2023-12-07T10:40:36;78009.63;;;-141.64;97.97
47753;BME280;2038;51.728;6.674;2023-12-07T10:43:06;77995.94;;;-141.64;97.89
47753;BME280;2038;51.728;6.674;2023-12-07T10:45:34;77982.28;;;-141.64;97.60
47753;BME280;2038;51.728;6.674;2023-12-07T10:48:07;77980.31;;;-141.64;97.66
47753;BME280;2038;51.728;6.674;2023-12-07T10:50:41;77954.94;;;-141.64;97.76
47753;BME280;2038;51.728;6.674;2023-12-07T10:56:01;77919.78;;;-141.64;97.85
47753;BME280;2038;51.728;6.674;2023-12-07T10:58:29;77908.06;;;-141.64;97.79
47753;BME280;2038;51.728;6.674;2023-12-07T11:00:55;77902.19;;;-141.64;97.54
47753;BME280;2038;51.728;6.674;2023-12-07T11:03:23;77896.34;;;-141.64;97.53
47753;BME280;2038;51.728;6.674;2023-12-07T11:05:50;77886.56;;;-141.64;97.40
47753;BME280;2038;51.728;6.674;2023-12-07T11:11:15;77874.84;;;-141.64;97.56
47753;BME280;2038;51.728;6.674;2023-12-07T11:14:04;77865.09;;;-141.64;97.45
47753;BME280;2038;51.728;6.674;2023-12-07T11:16:35;77857.28;;;-141.64;97.52
47753;BME280;2038;51.728;6.674;2023-12-07T11:19:05;77847.50;;;-141.64;97.27
47753;BME280;2038;51.728;6.674;2023-12-07T11:21:31;77853.38;;;-141.64;97.18
47753;BME280;2038;51.728;6.674;2023-12-07T11:24:00;77853.38;;;-141.64;96.99
47753;BME280;2038;51.728;6.674;2023-12-07T11:26:30;77849.47;;;-141.64;96.91
47753;BME280;2038;51.728;6.674;2023-12-07T11:28:56;77845.56;;;-141.64;96.96
47753;BME280;2038;51.728;6.674;2023-12-07T11:31:22;77833.84;;;-141.64;97.33
47753;BME280;2038;51.728;6.674;2023-12-07T11:33:48;77826.03;;;-141.64;96.98
47753;BME280;2038;51.728;6.674;2023-12-07T11:36:15;77822.13;;;-141.64;97.25
47753;BME280;2038;51.728;6.674;2023-12-07T11:41:55;77808.44;;;-141.64;97.82
47753;BME280;2038;51.728;6.674;2023-12-07T11:44:41;77792.81;;;-141.64;97.74
47753;BME280;2038;51.728;6.674;2023-12-07T11:47:09;77779.13;;;-141.64;97.88
47753;BME280;2038;51.728;6.674;2023-12-07T11:49:35;77765.47;;;-141.64;97.88
47753;BME280;2038;51.728;6.674;2023-12-07T11:52:16;77757.66;;;-141.64;97.72
47753;BME280;2038;51.728;6.674;2023-12-07T11:54:48;77751.78;;;-141.64;97.90
47753;BME280;2038;51.728;6.674;2023-12-07T11:57:16;77745.94;;;-141.64;97.71
47753;BME280;2038;51.728;6.674;2023-12-07T11:59:46;77747.88;;;-141.64;97.53
47753;BME280;2038;51.728;6.674;2023-12-07T12:02:15;77745.94;;;-141.64;97.36
47753;BME280;2038;51.728;6.674;2023-12-07T12:04:41;77730.31;;;-141.64;97.07
47753;BME280;2038;51.728;6.674;2023-12-07T12:07:08;77734.22;;;-141.64;96.75
47753;BME280;2038;51.728;6.674;2023-12-07T12:09:34;77724.47;;;-141.64;96.68
47753;BME280;2038;51.728;6.674;2023-12-07T12:12:00;77708.84;;;-141.64;96.47
47753;BME280;2038;51.728;6.674;2023-12-07T12:14:27;77702.97;;;-141.64;96.27
47753;BME280;2038;51.728;6.674;2023-12-07T12:16:54;77689.28;;;-141.64;96.30
47753;BME280;2038;51.728;6.674;2023-12-07T12:19:22;77685.38;;;-141.64;95.98
47753;BME280;2038;51.728;6.674;2023-12-07T12:21:49;77681.47;;;-141.64;95.72
47753;BME280;2038;51.728;6.674;2023-12-07T12:24:15;77695.16;;;-141.64;95.67
47753;BME280;2038;51.728;6.674;2023-12-07T12:26:42;77697.09;;;-141.64;95.35
47753;BME280;2038;51.728;6.674;2023-12-07T12:29:10;77689.28;;;-141.64;95.00
47753;BME280;2038;51.728;6.674;2023-12-07T12:31:38;77691.25;;;-141.64;95.08
47753;BME280;2038;51.728;6.674;2023-12-07T12:34:07;77681.47;;;-141.64;94.49
47753;BME280;2038;51.728;6.674;2023-12-07T12:36:34;77685.38;;;-141.64;93.63
47753;BME280;2038;51.728;6.674;2023-12-07T12:39:00;77685.38;;;-141.64;93.42
47753;BME280;2038;51.728;6.674;2023-12-07T12:41:29;77683.44;;;-141.64;93.02
47753;BME280;2038;51.728;6.674;2023-12-07T12:43:58;77681.47;;;-141.64;92.57
47753;BME280;2038;51.728;6.674;2023-12-07T12:46:25;77681.47;;;-141.64;92.66
47753;BME280;2038;51.728;6.674;2023-12-07T12:49:00;77679.53;;;-141.64;92.42
47753;BME280;2038;51.728;6.674;2023-12-07T12:51:28;77677.56;;;-141.64;92.15
47753;BME280;2038;51.728;6.674;2023-12-07T12:53:59;77673.66;;;-141.64;91.90
47753;BME280;2038;51.728;6.674;2023-12-07T12:56:27;77673.66;;;-141.64;91.83
47753;BME280;2038;51.728;6.674;2023-12-07T12:58:54;77675.63;;;-141.64;91.22
47753;BME280;2038;51.728;6.674;2023-12-07T13:01:24;77673.66;;;-141.64;91.08